Strona główna
METAR-TAF:

METAR-TAF

Lotnisko :

Port lotniczy Sybin

Sybin, Rumunia

Szerokość geograficzna: 45-48N, Długość geograficzna: 024-09E, wysokość: 443 m

Aktualna obserwacja pogody

Raport powstał 37 minut temu, godzina 17:00 UTC
Wiatr 8 kt od północ
Temperatura 13°C
Wilgotność 67%
Ciśnienie 1013 hPa
Widzialność 10 km lub więcej
Rozproszone chmury na wysokości 3300 ft, Cumulonimbus.
Rozproszone chmury na wysokości 4000 ft

METAR: LRSB 301700Z 36008KT 9999 SCT033CB SCT040 13/07 Q1013

czas: 20:37 (17:37 UTC)

Prognoza

Raport powstał 37 minut temu, godzina 17:00 UTC
Prognoza ważna od 30 godzina 18 UTC do 31 godzina 18 UTC
Wiatr 4 kt z kierunków zmiennych
Widzialność 10 km lub więcej
Przerywane chmury na wysokości 4000 ft
Stopniowe zmiany
od 31 godzina 05 UTC do 31 godzina 07 UTC
Wiatr 10 kt od zachodnio-północny zachód
Przejściowo
od 31 godzina 11 UTC do 31 godzina 17 UTC
Rozproszone chmury na wysokości 4000 ft, Cumulonimbus.

TAF: LRSB 301700Z 3018/3118 VRB04KT 9999 BKN040 BECMG 3105/3107 30010KT TEMPO 3111/3117 SCT040CB

Obserwacja i prognoza pogody dla ponad 4000 lotnisk (raport METAR i TAF).

Dostępne stacje oznaczono żółtymi i czerwonymi punktami na mapie.

Najedź kursorem aby zobaczyć nazwę stacji.

Kliknij aby zobaczyć obserwacje i prognozy pogody.

Aby zmienić mapę: kliknij na zielony przycisk z czarnym krzyżykiem, aby powiększyć; na zielony przycisk z myślnikiem, aby pomniejszyć; na zielone strzałki, aby przejść do map sąsiednich.


METAR-TAF: